createdAt,value
2018-08-25T00:00:41.724Z,99.56
2018-08-25T00:03:10.805Z,99.62
2018-08-25T00:05:39.681Z,99.48
2018-08-25T00:08:08.676Z,99.01
2018-08-25T00:10:37.528Z,98.46
2018-08-25T00:13:06.452Z,98.94
2018-08-25T00:15:35.536Z,97.99
2018-08-25T00:18:04.396Z,98.87
2018-08-25T00:20:33.213Z,99.00
2018-08-25T00:23:02.095Z,98.78
2018-08-25T00:25:31.043Z,96.58
2018-08-25T00:28:00.445Z,98.14
2018-08-25T00:30:34.589Z,98.90
2018-08-25T00:33:03.609Z,99.65
2018-08-25T00:35:32.476Z,99.75
2018-08-25T00:38:01.459Z,99.89
2018-08-25T00:40:30.494Z,100.00
2018-08-25T00:42:59.388Z,100.00
2018-08-25T00:45:28.270Z,100.00
2018-08-25T00:47:57.122Z,100.00
2018-08-25T00:50:26.187Z,100.00
2018-08-25T00:52:55.052Z,100.00
2018-08-25T00:55:24.077Z,100.00
2018-08-25T00:57:52.989Z,100.00
2018-08-25T01:00:22.080Z,100.00
2018-08-25T01:02:51.156Z,100.00
2018-08-25T01:05:20.160Z,100.00
2018-08-25T01:07:49.048Z,100.00
2018-08-25T01:10:17.896Z,100.00
2018-08-25T01:12:47.314Z,100.00
2018-08-25T01:15:16.525Z,100.00
2018-08-25T01:17:45.429Z,100.00
2018-08-25T01:20:14.337Z,100.00
2018-08-25T01:22:43.314Z,100.00
2018-08-25T01:25:12.155Z,100.00
2018-08-25T01:27:41.214Z,100.00
2018-08-25T01:30:10.097Z,100.00
2018-08-25T01:32:39.183Z,100.00
2018-08-25T01:35:08.074Z,100.00
2018-08-25T01:37:37.108Z,100.00
2018-08-25T01:40:06.228Z,100.00
2018-08-25T01:42:35.201Z,100.00
2018-08-25T01:45:04.172Z,100.00
2018-08-25T01:47:33.112Z,100.00
2018-08-25T01:50:01.956Z,100.00
2018-08-25T01:52:31.072Z,100.00
2018-08-25T01:55:00.180Z,100.00
2018-08-25T01:57:29.023Z,100.00
2018-08-25T01:59:58.038Z,100.00
2018-08-25T02:02:26.992Z,100.00
2018-08-25T02:04:55.831Z,100.00
2018-08-25T02:07:24.684Z,100.00
2018-08-25T02:09:53.757Z,100.00
2018-08-25T02:12:22.697Z,100.00
2018-08-25T02:14:51.564Z,100.00
2018-08-25T02:17:20.703Z,100.00
2018-08-25T02:19:49.732Z,100.00
2018-08-25T02:22:18.589Z,100.00
2018-08-25T02:24:47.629Z,100.00
2018-08-25T02:27:16.656Z,100.00
2018-08-25T02:29:45.645Z,100.00
2018-08-25T02:32:14.496Z,100.00
2018-08-25T02:34:43.375Z,100.00
2018-08-25T02:37:12.597Z,100.00
2018-08-25T02:39:41.577Z,100.00
2018-08-25T02:42:10.544Z,100.00
2018-08-25T02:44:39.448Z,100.00
2018-08-25T02:47:08.256Z,100.00
2018-08-25T02:49:37.147Z,100.00
2018-08-25T02:52:06.178Z,100.00
2018-08-25T02:54:35.064Z,100.00
2018-08-25T02:57:04.024Z,100.00
2018-08-25T02:59:32.899Z,100.00
2018-08-25T03:02:01.904Z,100.00
2018-08-25T03:04:30.926Z,100.00
2018-08-25T03:06:59.843Z,100.00
2018-08-25T03:09:28.743Z,100.00
2018-08-25T03:11:57.719Z,100.00
2018-08-25T03:14:26.554Z,100.00
2018-08-25T03:16:55.412Z,100.00
2018-08-25T03:19:24.393Z,100.00
2018-08-25T03:21:53.318Z,100.00
2018-08-25T03:24:22.453Z,100.00
2018-08-25T03:26:51.588Z,100.00
2018-08-25T03:29:20.457Z,100.00
2018-08-25T03:31:49.463Z,100.00
2018-08-25T03:34:18.363Z,100.00
2018-08-25T03:36:47.295Z,100.00
2018-08-25T03:39:16.256Z,100.00
2018-08-25T03:41:45.217Z,100.00
2018-08-25T03:44:14.229Z,100.00
2018-08-25T03:46:43.186Z,100.00
2018-08-25T03:49:12.093Z,100.00
2018-08-25T03:51:40.983Z,100.00
2018-08-25T03:54:10.323Z,100.00
2018-08-25T03:56:39.132Z,100.00
2018-08-25T03:59:08.017Z,100.00
2018-08-25T04:01:37.101Z,100.00
2018-08-25T04:04:05.976Z,100.00
2018-08-25T04:06:34.873Z,100.00
2018-08-25T04:09:04.031Z,100.00
2018-08-25T04:11:33.069Z,100.00
2018-08-25T04:14:02.116Z,100.00
2018-08-25T04:16:31.032Z,100.00
2018-08-25T04:19:00.061Z,100.00
2018-08-25T04:21:29.072Z,100.00
2018-08-25T04:23:58.132Z,100.00
2018-08-25T04:26:27.104Z,100.00
2018-08-25T04:28:56.068Z,100.00
2018-08-25T04:31:25.007Z,100.00
2018-08-25T04:33:53.878Z,100.00
2018-08-25T04:36:22.736Z,100.00
2018-08-25T04:38:52.816Z,100.00
2018-08-25T04:41:21.786Z,100.00
2018-08-25T04:43:50.620Z,100.00
2018-08-25T04:46:19.442Z,100.00
2018-08-25T04:48:48.383Z,100.00
2018-08-25T04:51:17.508Z,100.00
2018-08-25T04:53:47.187Z,100.00
2018-08-25T04:56:15.995Z,100.00
2018-08-25T04:58:44.905Z,100.00
2018-08-25T05:01:13.746Z,100.00
2018-08-25T05:03:42.749Z,100.00
2018-08-25T05:06:11.642Z,100.00
2018-08-25T05:08:40.803Z,100.00
2018-08-25T05:11:09.705Z,100.00
2018-08-25T05:13:38.582Z,100.00
2018-08-25T05:16:07.474Z,100.00
2018-08-25T05:18:37.120Z,100.00
2018-08-25T05:21:06.109Z,100.00
2018-08-25T05:23:35.037Z,100.00
2018-08-25T05:26:03.929Z,99.18
2018-08-25T05:28:33.024Z,100.00
2018-08-25T05:31:02.016Z,100.00
2018-08-25T05:33:31.157Z,98.93
2018-08-25T05:36:00.045Z,98.26
2018-08-25T05:38:28.982Z,97.95
2018-08-25T05:40:58.011Z,97.13
2018-08-25T05:43:26.889Z,96.80
2018-08-25T05:45:55.803Z,96.85
2018-08-25T05:48:24.795Z,95.62
2018-08-25T05:50:53.688Z,94.12
2018-08-25T05:53:22.733Z,94.18
2018-08-25T05:55:51.555Z,94.63
2018-08-25T05:58:20.408Z,94.04
2018-08-25T06:00:49.455Z,92.76
2018-08-25T06:03:18.316Z,92.55
2018-08-25T06:05:47.249Z,92.94
2018-08-25T06:08:16.107Z,92.90
2018-08-25T06:10:45.127Z,91.35
2018-08-25T06:13:14.013Z,91.26
2018-08-25T06:15:42.944Z,91.12
2018-08-25T06:18:11.903Z,90.84
2018-08-25T06:20:40.835Z,90.02
2018-08-25T06:23:09.748Z,90.31
2018-08-25T06:25:38.632Z,89.09
2018-08-25T06:28:07.742Z,90.03
2018-08-25T06:30:36.611Z,90.32
2018-08-25T06:33:05.852Z,88.44
2018-08-25T06:35:34.883Z,88.78
2018-08-25T06:38:03.885Z,88.65
2018-08-25T06:40:32.830Z,88.35
2018-08-25T06:43:01.682Z,87.82
2018-08-25T06:45:30.719Z,86.30
2018-08-25T06:47:59.647Z,85.12
2018-08-25T06:50:28.564Z,85.11
2018-08-25T06:52:57.484Z,85.07
2018-08-25T06:55:26.569Z,85.50
2018-08-25T06:57:55.475Z,83.79
2018-08-25T07:00:24.553Z,84.50
2018-08-25T07:02:53.479Z,84.07
2018-08-25T07:05:22.393Z,83.10
2018-08-25T07:07:51.312Z,84.03
2018-08-25T07:10:20.249Z,84.19
2018-08-25T07:12:49.378Z,82.21
2018-08-25T07:15:18.192Z,81.58
2018-08-25T07:17:47.209Z,79.90
2018-08-25T07:20:16.053Z,81.90
2018-08-25T07:22:45.076Z,83.26
2018-08-25T07:25:14.248Z,83.46
2018-08-25T07:27:43.115Z,82.40
2018-08-25T07:30:12.067Z,81.11
2018-08-25T07:32:40.995Z,82.14
2018-08-25T07:35:09.912Z,78.90
2018-08-25T07:37:38.918Z,78.86
2018-08-25T07:40:07.889Z,75.56
2018-08-25T07:42:36.897Z,75.26
2018-08-25T07:45:05.885Z,74.43
2018-08-25T07:47:34.877Z,74.78
2018-08-25T07:50:03.796Z,74.67
2018-08-25T07:52:32.785Z,75.98
2018-08-25T07:55:01.884Z,74.47
2018-08-25T07:57:31.109Z,69.85
2018-08-25T08:00:00.165Z,68.96
2018-08-25T08:02:29.208Z,65.47
2018-08-25T08:04:58.047Z,69.65
2018-08-25T08:07:27.001Z,68.31
2018-08-25T08:09:55.900Z,68.46
2018-08-25T08:12:24.882Z,67.41
2018-08-25T08:14:53.836Z,67.77
2018-08-25T08:17:22.753Z,70.26
2018-08-25T08:19:51.717Z,69.51
2018-08-25T08:22:20.766Z,70.94
2018-08-25T08:24:49.808Z,70.21
2018-08-25T08:27:18.916Z,67.87
2018-08-25T08:29:48.268Z,69.67
2018-08-25T08:32:17.216Z,68.26
2018-08-25T08:34:46.216Z,68.55
2018-08-25T08:37:15.017Z,68.61
2018-08-25T08:39:43.851Z,71.14
2018-08-25T08:42:12.771Z,67.49
2018-08-25T08:44:41.659Z,68.08
2018-08-25T08:47:10.972Z,67.69
2018-08-25T08:49:46.749Z,68.50
2018-08-25T08:52:11.724Z,68.72
2018-08-25T08:54:41.032Z,69.89
2018-08-25T08:57:10.325Z,67.00
2018-08-25T08:59:39.197Z,66.83
2018-08-25T09:02:08.158Z,66.00
2018-08-25T09:04:37.128Z,68.63
2018-08-25T09:07:06.180Z,68.23
2018-08-25T09:09:35.161Z,66.20
2018-08-25T09:12:04.069Z,69.60
2018-08-25T09:14:32.919Z,68.97
2018-08-25T09:17:01.729Z,70.47
2018-08-25T09:19:30.670Z,70.02
2018-08-25T09:21:59.634Z,71.89
2018-08-25T09:24:28.665Z,68.21
2018-08-25T09:26:57.539Z,68.92
2018-08-25T09:29:26.428Z,68.54
2018-08-25T09:31:55.456Z,70.03
2018-08-25T09:34:24.480Z,69.07
2018-08-25T09:36:53.371Z,69.61
2018-08-25T09:39:22.440Z,71.59
2018-08-25T09:41:51.606Z,65.76
2018-08-25T09:44:20.471Z,68.44
2018-08-25T09:46:49.440Z,71.30
2018-08-25T09:49:18.380Z,70.62
2018-08-25T09:51:47.356Z,71.56
2018-08-25T09:54:16.338Z,70.74
2018-08-25T09:56:45.300Z,68.92
2018-08-25T09:59:14.264Z,71.29
2018-08-25T10:01:48.032Z,73.33
2018-08-25T10:04:17.092Z,69.85
2018-08-25T10:06:45.895Z,70.88
2018-08-25T10:09:14.746Z,71.17
2018-08-25T10:11:43.636Z,72.98
2018-08-25T10:14:12.493Z,70.84
2018-08-25T10:16:41.415Z,69.22
2018-08-25T10:19:10.284Z,67.31
2018-08-25T10:21:39.307Z,67.03
2018-08-25T10:24:08.592Z,69.44
2018-08-25T10:26:37.608Z,70.55
2018-08-25T10:29:06.693Z,70.48
2018-08-25T10:31:35.651Z,69.69
2018-08-25T10:34:04.506Z,69.58
2018-08-25T10:36:33.407Z,69.50
2018-08-25T10:39:02.292Z,71.16
2018-08-25T10:41:31.343Z,74.70
2018-08-25T10:44:00.328Z,73.88
2018-08-25T10:46:29.172Z,72.90
2018-08-25T10:48:58.112Z,72.44
2018-08-25T10:51:26.999Z,71.82
2018-08-25T10:53:55.920Z,71.17
2018-08-25T10:56:25.156Z,69.31
2018-08-25T10:58:54.379Z,71.62
2018-08-25T11:01:23.433Z,68.62
2018-08-25T11:03:52.387Z,68.01
2018-08-25T11:06:21.317Z,69.44
2018-08-25T11:08:50.269Z,69.95
2018-08-25T11:11:19.129Z,69.49
2018-08-25T11:13:48.140Z,67.15
2018-08-25T11:16:17.083Z,67.44
2018-08-25T11:18:45.939Z,68.25
2018-08-25T11:21:14.781Z,67.68
2018-08-25T11:23:43.801Z,69.21
2018-08-25T11:26:12.799Z,67.92
2018-08-25T11:28:41.992Z,68.72
2018-08-25T11:31:10.988Z,68.46
2018-08-25T11:33:39.881Z,67.99
2018-08-25T11:36:09.058Z,68.27
2018-08-25T11:38:38.140Z,67.80
2018-08-25T11:41:07.052Z,67.68
2018-08-25T11:43:36.048Z,70.23
2018-08-25T11:46:04.968Z,67.77
2018-08-25T11:48:33.827Z,69.41
2018-08-25T11:51:02.728Z,68.33
2018-08-25T11:53:31.706Z,69.84
2018-08-25T11:56:00.721Z,68.85
2018-08-25T11:58:29.777Z,67.81
2018-08-25T12:00:59.172Z,69.81
2018-08-25T12:03:28.347Z,69.20
2018-08-25T12:05:57.531Z,68.24
2018-08-25T12:08:26.652Z,70.00
2018-08-25T12:10:55.604Z,70.17
2018-08-25T12:13:24.500Z,67.82
2018-08-25T12:15:53.420Z,69.57
2018-08-25T12:18:22.440Z,69.11
2018-08-25T12:20:51.373Z,69.29
2018-08-25T12:23:20.220Z,67.32
2018-08-25T12:25:49.223Z,67.83
2018-08-25T12:28:18.143Z,67.00
2018-08-25T12:30:47.169Z,65.14
2018-08-25T12:33:16.136Z,66.64
2018-08-25T12:35:44.988Z,65.95
2018-08-25T12:38:13.981Z,68.57
2018-08-25T12:40:42.991Z,68.39
2018-08-25T12:43:12.142Z,68.30
2018-08-25T12:45:41.029Z,66.74
2018-08-25T12:48:10.070Z,67.82
2018-08-25T12:50:39.032Z,67.77
2018-08-25T12:53:08.017Z,66.50
2018-08-25T12:55:36.880Z,67.21
2018-08-25T12:58:06.151Z,66.60
2018-08-25T13:00:35.129Z,65.22
2018-08-25T13:03:04.504Z,66.38
2018-08-25T13:05:33.729Z,67.28
2018-08-25T13:08:03.093Z,67.41
2018-08-25T13:10:32.125Z,65.89
2018-08-25T13:13:01.152Z,65.25
2018-08-25T13:15:30.069Z,64.18
2018-08-25T13:17:59.077Z,65.13
2018-08-25T13:20:28.149Z,63.64
2018-08-25T13:22:58.668Z,63.83
2018-08-25T13:25:27.920Z,62.64
2018-08-25T13:27:56.832Z,63.11
2018-08-25T13:30:25.676Z,60.99
2018-08-25T13:32:54.705Z,60.76
2018-08-25T13:35:23.661Z,60.84
2018-08-25T13:37:52.728Z,63.41
2018-08-25T13:40:21.580Z,62.87
2018-08-25T13:42:50.540Z,63.95
2018-08-25T13:45:19.556Z,62.99
2018-08-25T13:47:48.643Z,65.45
2018-08-25T13:50:17.556Z,63.42
2018-08-25T13:52:46.472Z,62.95
2018-08-25T13:55:15.428Z,64.22
2018-08-25T13:57:44.335Z,64.10
2018-08-25T14:00:13.503Z,63.65
2018-08-25T14:02:42.786Z,62.92
2018-08-25T14:05:12.367Z,59.80
2018-08-25T14:07:41.240Z,58.81
2018-08-25T14:10:10.244Z,58.54
2018-08-25T14:12:39.194Z,52.45
2018-08-25T14:15:08.184Z,50.81
2018-08-25T14:17:38.053Z,51.61
2018-08-25T14:20:07.096Z,48.96
2018-08-25T14:22:36.474Z,48.53
2018-08-25T14:25:05.719Z,45.64
2018-08-25T14:27:34.735Z,47.65
2018-08-25T14:30:03.644Z,46.68
2018-08-25T14:32:32.777Z,42.16
2018-08-25T14:35:01.584Z,44.65
2018-08-25T14:37:30.884Z,45.07
2018-08-25T14:39:59.972Z,41.71
2018-08-25T14:42:28.902Z,40.27
2018-08-25T14:44:57.937Z,42.45
2018-08-25T14:47:26.844Z,40.89
2018-08-25T14:49:55.800Z,37.72
2018-08-25T14:52:24.669Z,38.51
2018-08-25T14:54:53.471Z,38.71
2018-08-25T14:57:22.834Z,39.85
2018-08-25T14:59:52.203Z,39.13
2018-08-25T15:02:21.316Z,37.61
2018-08-25T15:04:50.302Z,36.13
2018-08-25T15:07:19.744Z,37.54
2018-08-25T15:09:48.796Z,37.74
2018-08-25T15:12:17.728Z,35.83
2018-08-25T15:14:46.672Z,36.25
2018-08-25T15:17:15.607Z,35.93
2018-08-25T15:19:44.456Z,39.39
2018-08-25T15:22:13.360Z,36.94
2018-08-25T15:24:42.215Z,38.21
2018-08-25T15:27:11.435Z,37.85
2018-08-25T15:29:40.413Z,37.09
2018-08-25T15:32:09.339Z,36.07
2018-08-25T15:34:38.420Z,39.31
2018-08-25T15:37:07.304Z,40.64
2018-08-25T15:39:36.254Z,40.95
2018-08-25T15:42:05.217Z,36.96
2018-08-25T15:44:34.293Z,37.67
2018-08-25T15:47:03.156Z,33.19
2018-08-25T15:49:32.152Z,32.08
2018-08-25T15:52:01.148Z,32.70
2018-08-25T15:56:57.804Z,31.55
2018-08-25T15:59:26.809Z,30.68
2018-08-25T16:01:55.788Z,30.18
2018-08-25T16:04:24.631Z,31.06
2018-08-25T16:06:53.484Z,31.85
2018-08-25T16:09:22.349Z,34.40
2018-08-25T16:11:51.384Z,35.58
2018-08-25T16:14:20.279Z,35.34
2018-08-25T16:16:49.232Z,36.63
2018-08-25T16:19:18.276Z,38.67
2018-08-25T16:21:47.200Z,37.38
2018-08-25T16:24:16.152Z,36.45
2018-08-25T16:26:45.055Z,40.05
2018-08-25T16:29:14.156Z,41.48
2018-08-25T16:31:43.142Z,44.38
2018-08-25T16:34:12.429Z,45.09
2018-08-25T16:36:41.920Z,47.22
2018-08-25T16:39:10.787Z,49.62
2018-08-25T16:41:39.762Z,54.12
2018-08-25T16:44:08.721Z,55.08
2018-08-25T16:46:37.696Z,55.23
2018-08-25T16:49:06.679Z,55.85
2018-08-25T16:51:35.601Z,56.32
2018-08-25T16:54:04.487Z,57.09
2018-08-25T16:56:33.301Z,58.62
2018-08-25T16:59:02.566Z,60.00
2018-08-25T17:01:31.967Z,60.98
2018-08-25T17:04:00.935Z,61.54
2018-08-25T17:06:29.840Z,64.29
2018-08-25T17:08:58.796Z,64.46
2018-08-25T17:11:27.704Z,64.53
2018-08-25T17:13:56.736Z,66.12
2018-08-25T17:16:25.756Z,66.68
2018-08-25T17:18:54.664Z,68.09
2018-08-25T17:21:23.476Z,68.81
2018-08-25T17:23:52.525Z,70.02
2018-08-25T17:26:21.475Z,68.33
2018-08-25T17:28:50.392Z,68.78
2018-08-25T17:31:19.287Z,70.02
2018-08-25T17:33:48.240Z,70.74
2018-08-25T17:36:17.087Z,72.80
2018-08-25T17:38:46.196Z,74.39
2018-08-25T17:41:15.174Z,74.85
2018-08-25T17:43:44.050Z,75.39
2018-08-25T17:46:13.715Z,76.47
2018-08-25T17:48:42.605Z,75.90
2018-08-25T17:51:11.554Z,74.53
2018-08-25T17:53:40.381Z,73.42
2018-08-25T17:56:09.384Z,74.96
2018-08-25T17:58:38.238Z,76.45
2018-08-25T18:01:07.072Z,77.57
2018-08-25T18:03:36.142Z,78.77
2018-08-25T18:06:05.052Z,79.12
2018-08-25T18:08:34.114Z,79.01
2018-08-25T18:11:02.949Z,79.41
2018-08-25T18:13:31.933Z,79.62
2018-08-25T18:16:00.780Z,80.56
2018-08-25T18:18:29.707Z,78.83
2018-08-25T18:20:58.698Z,79.73
2018-08-25T18:23:27.733Z,80.38
2018-08-25T18:25:56.735Z,78.68
2018-08-25T18:28:25.728Z,78.85
2018-08-25T18:30:54.669Z,80.38
2018-08-25T18:33:23.573Z,79.70
2018-08-25T18:35:52.724Z,80.04
2018-08-25T18:38:21.697Z,81.69
2018-08-25T18:40:50.588Z,82.11
2018-08-25T18:43:19.568Z,82.52
2018-08-25T18:45:48.657Z,82.82
2018-08-25T18:48:17.597Z,83.23
2018-08-25T18:50:46.564Z,83.91
2018-08-25T18:53:15.500Z,84.47
2018-08-25T18:55:44.712Z,84.30
2018-08-25T18:58:13.726Z,84.39
2018-08-25T19:00:42.629Z,85.22
2018-08-25T19:03:11.531Z,85.73
2018-08-25T19:05:40.373Z,85.17
2018-08-25T19:08:09.393Z,86.20
2018-08-25T19:10:38.364Z,85.97
2018-08-25T19:13:07.340Z,86.54
2018-08-25T19:15:36.197Z,86.71
2018-08-25T19:18:05.117Z,87.02
2018-08-25T19:20:33.975Z,86.06
2018-08-25T19:23:02.988Z,86.05
2018-08-25T19:25:32.001Z,86.30
2018-08-25T19:28:00.927Z,86.29
2018-08-25T19:30:29.988Z,86.65
2018-08-25T19:32:58.968Z,86.92
2018-08-25T19:35:27.870Z,87.02
2018-08-25T19:37:56.848Z,87.48
2018-08-25T19:40:25.875Z,87.93
2018-08-25T19:42:54.828Z,88.06
2018-08-25T19:45:23.668Z,87.52
2018-08-25T19:47:52.702Z,88.00
2018-08-25T19:50:21.707Z,88.41
2018-08-25T19:52:50.690Z,88.46
2018-08-25T19:55:19.561Z,88.25
2018-08-25T19:57:48.516Z,88.20
2018-08-25T20:00:17.515Z,88.38
2018-08-25T20:02:46.416Z,89.19
2018-08-25T20:05:15.254Z,89.00
2018-08-25T20:07:44.229Z,88.92
2018-08-25T20:10:13.204Z,89.14
2018-08-25T20:12:42.130Z,89.38
2018-08-25T20:15:11.037Z,89.45
2018-08-25T20:17:39.993Z,89.27
2018-08-25T20:20:09.669Z,89.34
2018-08-25T20:22:38.508Z,89.17
2018-08-25T20:25:07.915Z,89.52
2018-08-25T20:27:36.776Z,89.71
2018-08-25T20:30:06.655Z,89.24
2018-08-25T20:32:35.661Z,89.06
2018-08-25T20:35:04.615Z,88.92
2018-08-25T20:37:33.476Z,88.47
2018-08-25T20:40:02.505Z,88.43
2018-08-25T20:42:31.505Z,87.90
2018-08-25T20:45:00.580Z,88.54
2018-08-25T20:47:29.567Z,88.55
2018-08-25T20:49:58.460Z,88.49
2018-08-25T20:52:27.525Z,89.04
2018-08-25T20:54:56.545Z,87.75
2018-08-25T20:57:25.408Z,89.54
2018-08-25T20:59:54.472Z,89.59
2018-08-25T21:02:23.322Z,88.93
2018-08-25T21:04:52.317Z,90.17
2018-08-25T21:07:21.165Z,90.52
2018-08-25T21:09:50.004Z,91.89
2018-08-25T21:12:19.069Z,92.82
2018-08-25T21:14:47.965Z,89.57
2018-08-25T21:17:17.001Z,88.39
2018-08-25T21:19:45.844Z,88.06
2018-08-25T21:22:15.104Z,88.51
2018-08-25T21:24:44.156Z,89.09
2018-08-25T21:27:13.182Z,89.07
2018-08-25T21:29:42.313Z,89.96
2018-08-25T21:32:11.165Z,90.93
2018-08-25T21:34:40.018Z,91.80
2018-08-25T21:37:09.069Z,93.49
2018-08-25T21:39:38.017Z,92.75
2018-08-25T21:42:07.057Z,93.21
2018-08-25T21:44:35.928Z,93.07
2018-08-25T21:47:04.948Z,94.23
2018-08-25T21:49:33.963Z,95.53
2018-08-25T21:52:02.962Z,96.30
2018-08-25T21:54:31.992Z,96.51
2018-08-25T21:57:00.941Z,96.66
2018-08-25T21:59:29.913Z,96.82
2018-08-25T22:01:59.412Z,96.67
2018-08-25T22:04:29.288Z,96.42
2018-08-25T22:06:58.670Z,95.70
2018-08-25T22:09:27.539Z,95.20
2018-08-25T22:11:56.572Z,95.35
2018-08-25T22:14:25.493Z,96.71
2018-08-25T22:16:54.431Z,97.45
2018-08-25T22:19:23.290Z,98.05
2018-08-25T22:21:52.266Z,99.00
2018-08-25T22:24:21.289Z,99.34
2018-08-25T22:26:50.225Z,98.77
2018-08-25T22:29:19.152Z,98.94
2018-08-25T22:31:48.304Z,98.97
2018-08-25T22:34:17.280Z,99.40
2018-08-25T22:36:46.135Z,99.04
2018-08-25T22:39:14.987Z,99.45
2018-08-25T22:41:44.096Z,100.00
2018-08-25T22:44:13.294Z,100.00
2018-08-25T22:46:42.324Z,100.00
2018-08-25T22:49:11.164Z,100.00
2018-08-25T22:51:40.038Z,100.00
2018-08-25T22:54:09.063Z,100.00
2018-08-25T22:56:38.004Z,100.00
2018-08-25T22:59:06.832Z,100.00
2018-08-25T23:01:35.845Z,100.00
2018-08-25T23:04:04.903Z,100.00
2018-08-25T23:06:33.847Z,100.00
2018-08-25T23:09:02.751Z,100.00
2018-08-25T23:11:31.684Z,100.00
2018-08-25T23:14:00.637Z,100.00
2018-08-25T23:16:29.620Z,100.00
2018-08-25T23:18:58.657Z,100.00
2018-08-25T23:21:27.504Z,100.00
2018-08-25T23:23:56.525Z,100.00
2018-08-25T23:26:25.457Z,100.00
2018-08-25T23:28:54.499Z,100.00
2018-08-25T23:31:23.427Z,100.00
2018-08-25T23:33:52.338Z,100.00
2018-08-25T23:36:21.319Z,100.00
2018-08-25T23:38:50.421Z,100.00
2018-08-25T23:41:19.259Z,100.00
2018-08-25T23:43:48.208Z,100.00
2018-08-25T23:46:17.104Z,100.00
2018-08-25T23:48:46.020Z,100.00
2018-08-25T23:51:14.871Z,100.00
2018-08-25T23:53:43.783Z,100.00
2018-08-25T23:56:12.620Z,100.00
2018-08-25T23:58:41.517Z,100.00
